Bomont, West Virginia
Current Conditions -  °F | °C
As of 11:54 AM on Saturday 22 Nov 2014 (Local Time) from KCRW Reporting Station
Scattered Clouds Scattered Clouds  
Wind Chill: 58°   Ceiling: Unl
Heat Index: 58°   Visibility: 10mi
Dew Point: 24°   Wind: 9mph
Humidity: 27%   Direction: 230°SW
Pressure: 30.3"   Gusts: NA
Location:  38.45°N, 81.24°W
Report Text: KCRW 221654Z 23008KT 10SM SCT055 14/M04 A3030 RMK AO2 SLP266 SCT V BKN T01441044
Loading
Personal Weather Stations






























Interactive Weather Map New forecast layout! Learn more

10-Day Weather Forecast

Advertisements
Track Severe Weather on mobile